Terminal Aerodrome Forecast
Issued by NWS

Home | Current Version | Previous Version | Text Only | Print | Product List | Glossary On
Versions: 1 2 3 4 5 6 7 8 9 10 11 12 13 14
000
FTUS43 KEAX 251100
TAFSTJ
TAF
KSTJ 251120Z 2512/2612 13013KT P6SM VCSH SCT020 BKN050
      TEMPO 2512/2516 6SM -TSRA BKN025CB
     FM251600 01012KT P6SM OVC015
     FM260300 03009KT P6SM BKN015=

USA.gov is the U.S. government's official web portal to all federal, state and local government web resources and services.